Myrtle Beach, South Carolina
Current Conditions -  °F | °C
As of 6:45 PM on Friday 28 Nov 2014 (Local Time) from KMYR Reporting Station
Clear Clear  
Wind Chill: 33°   Ceiling: Unl
Heat Index: 37°   Visibility: 10mi
Dew Point: 28°   Wind: 6mph
Humidity: 70%   Direction: 350°N
Pressure: 30.32"   Gusts: NA
Location:  33.69°N, 78.88°W
Report Text: KMYR 282345Z 35005KT 10SM CLR 03/M02 A3032
Loading
Personal Weather Stations






























Interactive Weather Map New forecast layout! Learn more

10-Day Weather Forecast

Advertisements
Track Severe Weather on mobile